createdAt,value
2024-01-24T00:00:25.760Z,78.15
2024-01-24T00:01:28.441Z,79.62
2024-01-24T00:02:31.074Z,78.20
2024-01-24T00:03:33.805Z,77.31
2024-01-24T00:04:36.437Z,77.34
2024-01-24T00:05:39.214Z,76.60
2024-01-24T00:06:41.892Z,76.53
2024-01-24T00:07:44.716Z,77.21
2024-01-24T00:08:49.514Z,76.31
2024-01-24T00:09:52.081Z,76.02
2024-01-24T00:10:54.723Z,76.66
2024-01-24T00:11:57.537Z,76.72
2024-01-24T00:13:00.288Z,75.82
2024-01-24T00:14:03.078Z,75.67
2024-01-24T00:15:06.448Z,76.22
2024-01-24T00:16:09.778Z,76.41
2024-01-24T00:17:12.316Z,76.38
2024-01-24T00:18:15.176Z,77.15
2024-01-24T00:19:18.146Z,77.53
2024-01-24T00:20:20.758Z,76.85
2024-01-24T00:21:23.419Z,76.39
2024-01-24T00:22:26.145Z,76.57
2024-01-24T00:23:28.889Z,76.29
2024-01-24T00:24:31.459Z,76.02
2024-01-24T00:25:34.041Z,75.70
2024-01-24T00:26:39.468Z,76.25
2024-01-24T00:27:42.433Z,76.11
2024-01-24T00:28:45.068Z,75.63
2024-01-24T00:29:47.605Z,75.21
2024-01-24T00:30:50.371Z,75.89
2024-01-24T00:31:56.865Z,75.70
2024-01-24T00:33:01.170Z,76.00
2024-01-24T00:34:03.829Z,75.58
2024-01-24T00:35:07.059Z,75.67
2024-01-24T00:36:09.674Z,75.86
2024-01-24T00:37:12.316Z,75.05
2024-01-24T00:38:14.894Z,74.99
2024-01-24T00:39:18.290Z,74.38
2024-01-24T00:40:20.931Z,75.14
2024-01-24T00:41:23.608Z,74.90
2024-01-24T00:42:26.240Z,74.84
2024-01-24T00:43:28.882Z,74.63
2024-01-24T00:44:31.425Z,75.05
2024-01-24T00:45:34.018Z,74.59
2024-01-24T00:46:36.688Z,74.77
2024-01-24T00:47:40.591Z,74.07
2024-01-24T00:48:43.330Z,74.62
2024-01-24T00:49:45.954Z,75.09
2024-01-24T00:50:48.528Z,74.76
2024-01-24T00:51:51.117Z,74.31
2024-01-24T00:52:56.707Z,73.51
2024-01-24T00:53:59.990Z,73.86
2024-01-24T00:55:02.904Z,74.17
2024-01-24T00:56:06.190Z,74.16
2024-01-24T00:57:09.267Z,73.99
2024-01-24T00:58:11.881Z,74.39
2024-01-24T00:59:14.673Z,75.07
2024-01-24T01:00:17.692Z,74.35
2024-01-24T01:01:21.277Z,74.96
2024-01-24T01:02:23.973Z,76.72
2024-01-24T01:03:26.680Z,75.21
2024-01-24T01:04:29.381Z,74.99
2024-01-24T01:05:32.065Z,75.60
2024-01-24T01:06:34.705Z,75.05
2024-01-24T01:07:37.237Z,74.87
2024-01-24T01:08:39.898Z,74.44
2024-01-24T01:09:42.427Z,74.43
2024-01-24T01:10:45.020Z,74.77
2024-01-24T01:11:47.597Z,74.12
2024-01-24T01:12:50.160Z,74.75
2024-01-24T01:13:52.858Z,75.46
2024-01-24T01:14:55.538Z,74.73
2024-01-24T01:15:58.098Z,74.53
2024-01-24T01:17:00.682Z,75.46
2024-01-24T01:18:03.579Z,74.79
2024-01-24T01:19:06.285Z,75.25
2024-01-24T01:20:10.902Z,75.44
2024-01-24T01:21:13.573Z,75.14
2024-01-24T01:22:16.756Z,74.25
2024-01-24T01:23:19.841Z,74.14
2024-01-24T01:24:22.398Z,74.12
2024-01-24T01:25:24.957Z,74.73
2024-01-24T01:26:27.567Z,74.05
2024-01-24T01:27:30.177Z,75.38
2024-01-24T01:28:32.765Z,74.85
2024-01-24T01:29:35.588Z,75.70
2024-01-24T01:30:38.202Z,75.99
2024-01-24T01:31:40.750Z,75.62
2024-01-24T01:32:44.509Z,74.91
2024-01-24T01:33:47.216Z,75.33
2024-01-24T01:34:49.895Z,75.95
2024-01-24T01:35:57.788Z,75.59
2024-01-24T01:37:03.805Z,75.14
2024-01-24T01:38:06.419Z,74.59
2024-01-24T01:39:10.048Z,75.18
2024-01-24T01:40:12.968Z,75.48
2024-01-24T01:41:15.537Z,75.50
2024-01-24T01:42:18.396Z,77.21
2024-01-24T01:43:21.084Z,76.82
2024-01-24T01:44:23.811Z,76.63
2024-01-24T01:45:26.406Z,76.66
2024-01-24T01:46:29.409Z,75.70
2024-01-24T01:47:32.408Z,75.89
2024-01-24T01:48:35.881Z,76.44
2024-01-24T01:49:39.615Z,76.53
2024-01-24T01:50:42.399Z,77.72
2024-01-24T01:51:46.783Z,77.22
2024-01-24T01:52:49.774Z,75.71
2024-01-24T01:53:52.753Z,74.84
2024-01-24T01:54:55.745Z,76.84
2024-01-24T01:55:58.727Z,77.79
2024-01-24T01:57:02.324Z,77.33
2024-01-24T01:58:05.709Z,77.14
2024-01-24T01:59:09.430Z,76.61
2024-01-24T02:00:20.754Z,75.56
2024-01-24T02:01:24.244Z,75.47
2024-01-24T02:02:27.416Z,76.24
2024-01-24T02:03:30.221Z,76.57
2024-01-24T02:04:33.043Z,75.61
2024-01-24T02:05:39.044Z,76.11
2024-01-24T02:06:42.038Z,76.37
2024-01-24T02:07:45.933Z,76.00
2024-01-24T02:08:48.842Z,76.76
2024-01-24T02:09:51.527Z,76.82
2024-01-24T02:10:55.131Z,76.27
2024-01-24T02:11:57.839Z,75.77
2024-01-24T02:13:00.540Z,75.81
2024-01-24T02:14:03.668Z,76.03
2024-01-24T02:15:07.487Z,75.15
2024-01-24T02:16:11.523Z,77.04
2024-01-24T02:17:14.119Z,76.80
2024-01-24T02:18:16.844Z,74.51
2024-01-24T02:19:19.521Z,74.82
2024-01-24T02:20:23.674Z,74.83
2024-01-24T02:21:26.303Z,74.96
2024-01-24T02:22:28.905Z,73.68
2024-01-24T02:23:31.686Z,73.76
2024-01-24T02:24:34.416Z,73.96
2024-01-24T02:25:37.050Z,73.43
2024-01-24T02:26:40.350Z,73.25
2024-01-24T02:27:45.159Z,72.90
2024-01-24T02:28:49.421Z,73.28
2024-01-24T02:29:52.009Z,73.65
2024-01-24T02:30:54.676Z,73.44
2024-01-24T02:31:57.387Z,75.60
2024-01-24T02:33:00.338Z,73.85
2024-01-24T02:34:03.103Z,73.70
2024-01-24T02:35:06.490Z,74.30
2024-01-24T02:36:11.067Z,74.10
2024-01-24T02:37:13.761Z,73.75
2024-01-24T02:38:16.336Z,73.76
2024-01-24T02:39:19.158Z,74.02
2024-01-24T02:40:22.566Z,73.88
2024-01-24T02:41:25.145Z,74.54
2024-01-24T02:42:27.732Z,74.80
2024-01-24T02:43:30.305Z,74.86
2024-01-24T02:44:32.820Z,74.97
2024-01-24T02:45:35.559Z,74.91
2024-01-24T02:46:38.545Z,75.86
2024-01-24T02:47:41.190Z,75.39
2024-01-24T02:48:43.821Z,75.86
2024-01-24T02:49:46.546Z,75.73
2024-01-24T02:50:49.133Z,75.70
2024-01-24T02:51:51.927Z,75.40
2024-01-24T02:52:54.674Z,75.92
2024-01-24T02:53:57.285Z,75.62
2024-01-24T02:54:59.990Z,76.21
2024-01-24T02:56:03.505Z,75.50
2024-01-24T02:57:06.210Z,75.12
2024-01-24T02:58:08.957Z,74.72
2024-01-24T02:59:11.866Z,74.80
2024-01-24T03:00:15.164Z,74.36
2024-01-24T03:01:18.125Z,74.68
2024-01-24T03:02:20.766Z,74.71
2024-01-24T03:03:23.364Z,76.03
2024-01-24T03:04:26.187Z,75.57
2024-01-24T03:05:29.180Z,74.86
2024-01-24T03:06:31.749Z,73.88
2024-01-24T03:07:35.718Z,73.70
2024-01-24T03:08:57.874Z,74.10
2024-01-24T03:10:00.541Z,75.07
2024-01-24T03:11:03.076Z,76.29
2024-01-24T03:12:06.117Z,77.53
2024-01-24T03:13:09.133Z,76.45
2024-01-24T03:14:11.777Z,75.53
2024-01-24T03:15:14.454Z,75.02
2024-01-24T03:16:18.506Z,74.40
2024-01-24T03:17:21.146Z,74.14
2024-01-24T03:18:25.064Z,74.37
2024-01-24T03:19:27.908Z,74.52
2024-01-24T03:20:30.666Z,74.59
2024-01-24T03:21:33.953Z,74.39
2024-01-24T03:22:36.818Z,74.60
2024-01-24T03:23:39.633Z,74.33
2024-01-24T03:24:42.275Z,74.41
2024-01-24T03:25:44.803Z,74.58
2024-01-24T03:26:47.476Z,74.44
2024-01-24T03:27:50.161Z,74.87
2024-01-24T03:28:52.782Z,75.26
2024-01-24T03:29:56.405Z,75.41
2024-01-24T03:30:59.134Z,75.82
2024-01-24T03:32:01.676Z,75.87
2024-01-24T03:33:05.922Z,75.82
2024-01-24T03:34:08.744Z,76.02
2024-01-24T03:35:11.596Z,76.24
2024-01-24T03:36:14.362Z,76.21
2024-01-24T03:37:16.915Z,75.96
2024-01-24T03:38:21.110Z,76.19
2024-01-24T03:39:24.103Z,76.16
2024-01-24T03:40:26.661Z,76.09
2024-01-24T03:41:29.264Z,76.15
2024-01-24T03:42:33.144Z,76.31
2024-01-24T03:43:39.978Z,76.17
2024-01-24T03:44:42.701Z,75.56
2024-01-24T03:45:45.349Z,75.32
2024-01-24T03:46:47.950Z,75.38
2024-01-24T03:47:51.135Z,75.15
2024-01-24T03:48:54.051Z,75.31
2024-01-24T03:49:56.673Z,75.44
2024-01-24T03:50:59.808Z,75.65
2024-01-24T03:52:02.954Z,75.71
2024-01-24T03:53:06.230Z,75.72
2024-01-24T03:54:08.926Z,75.35
2024-01-24T03:55:11.577Z,75.16
2024-01-24T03:56:14.196Z,74.91
2024-01-24T03:57:16.980Z,74.78
2024-01-24T03:58:20.071Z,74.85
2024-01-24T03:59:22.739Z,74.73
2024-01-24T04:00:25.814Z,74.51
2024-01-24T04:01:28.505Z,74.51
2024-01-24T04:02:31.155Z,74.57
2024-01-24T04:03:33.960Z,74.58
2024-01-24T04:04:36.696Z,74.61
2024-01-24T04:05:39.298Z,74.37
2024-01-24T04:06:42.153Z,74.38
2024-01-24T04:07:44.902Z,74.44
2024-01-24T04:08:47.540Z,74.55
2024-01-24T04:09:50.209Z,74.37
2024-01-24T04:10:52.821Z,74.22
2024-01-24T04:11:55.492Z,74.53
2024-01-24T04:12:58.137Z,74.62
2024-01-24T04:14:02.718Z,75.05
2024-01-24T04:15:09.571Z,74.94
2024-01-24T04:16:12.279Z,74.95
2024-01-24T04:17:14.995Z,74.92
2024-01-24T04:18:17.842Z,74.89
2024-01-24T04:19:20.674Z,74.86
2024-01-24T04:20:23.549Z,74.68
2024-01-24T04:21:26.118Z,74.62
2024-01-24T04:22:28.673Z,74.99
2024-01-24T04:23:31.246Z,75.46
2024-01-24T04:24:33.794Z,75.50
2024-01-24T04:25:36.555Z,75.28
2024-01-24T04:26:40.810Z,75.39
2024-01-24T04:27:43.653Z,75.53
2024-01-24T04:28:46.235Z,75.55
2024-01-24T04:29:48.896Z,75.56
2024-01-24T04:30:51.816Z,75.19
2024-01-24T04:31:54.412Z,74.99
2024-01-24T04:32:57.082Z,75.21
2024-01-24T04:33:59.898Z,75.35
2024-01-24T04:35:02.560Z,75.47
2024-01-24T04:36:05.601Z,75.65
2024-01-24T04:37:08.746Z,75.61
2024-01-24T04:38:11.378Z,75.72
2024-01-24T04:39:14.029Z,75.64
2024-01-24T04:40:16.831Z,75.88
2024-01-24T04:41:19.617Z,75.61
2024-01-24T04:42:22.308Z,75.94
2024-01-24T04:43:24.958Z,75.96
2024-01-24T04:44:27.554Z,76.27
2024-01-24T04:45:30.150Z,76.05
2024-01-24T04:46:32.753Z,76.09
2024-01-24T04:47:35.381Z,76.41
2024-01-24T04:48:39.257Z,76.36
2024-01-24T04:49:45.230Z,76.18
2024-01-24T04:50:49.196Z,76.24
2024-01-24T04:51:52.202Z,76.29
2024-01-24T04:52:54.874Z,76.34
2024-01-24T04:53:57.672Z,76.02
2024-01-24T04:55:00.375Z,75.83
2024-01-24T04:56:03.804Z,75.89
2024-01-24T04:57:06.396Z,76.22
2024-01-24T04:58:09.033Z,76.28
2024-01-24T04:59:15.566Z,76.47
2024-01-24T05:00:18.845Z,76.71
2024-01-24T05:01:21.645Z,76.66
2024-01-24T05:02:24.536Z,76.62
2024-01-24T05:03:27.576Z,76.66
2024-01-24T05:04:30.360Z,76.75
2024-01-24T05:05:33.044Z,76.86
2024-01-24T05:06:36.512Z,76.37
2024-01-24T05:07:40.093Z,76.37
2024-01-24T05:08:42.673Z,76.35
2024-01-24T05:09:45.331Z,76.36
2024-01-24T05:10:48.112Z,76.30
2024-01-24T05:11:50.711Z,75.83
2024-01-24T05:12:53.523Z,76.00
2024-01-24T05:14:01.215Z,75.91
2024-01-24T05:15:04.186Z,75.74
2024-01-24T05:16:06.973Z,75.50
2024-01-24T05:17:09.720Z,75.28
2024-01-24T05:18:12.414Z,75.34
2024-01-24T05:19:15.236Z,74.88
2024-01-24T05:20:18.644Z,74.87
2024-01-24T05:21:21.449Z,74.94
2024-01-24T05:22:24.082Z,75.02
2024-01-24T05:23:26.654Z,75.08
2024-01-24T05:24:29.279Z,75.26
2024-01-24T05:25:32.113Z,75.32
2024-01-24T05:26:34.682Z,75.37
2024-01-24T05:27:37.544Z,75.82
2024-01-24T05:28:41.825Z,76.16
2024-01-24T05:29:46.762Z,76.12
2024-01-24T05:30:49.437Z,76.33
2024-01-24T05:31:52.113Z,76.39
2024-01-24T05:32:58.878Z,75.93
2024-01-24T05:34:03.652Z,76.25
2024-01-24T05:35:07.285Z,76.46
2024-01-24T05:36:11.064Z,76.35
2024-01-24T05:37:13.997Z,76.38
2024-01-24T05:38:16.619Z,76.41
2024-01-24T05:39:19.310Z,76.28
2024-01-24T05:40:22.904Z,76.08
2024-01-24T05:41:26.240Z,75.43
2024-01-24T05:42:28.847Z,75.21
2024-01-24T05:43:31.514Z,74.35
2024-01-24T05:44:34.073Z,74.14
2024-01-24T05:45:36.691Z,74.07
2024-01-24T05:46:39.434Z,74.15
2024-01-24T05:47:43.834Z,73.80
2024-01-24T05:48:47.271Z,73.15
2024-01-24T05:49:50.008Z,72.77
2024-01-24T05:50:52.613Z,72.61
2024-01-24T05:51:55.249Z,72.06
2024-01-24T05:52:59.218Z,72.19
2024-01-24T05:54:01.795Z,72.12
2024-01-24T05:55:05.667Z,72.00
2024-01-24T05:56:08.474Z,72.16
2024-01-24T05:57:11.089Z,72.51
2024-01-24T05:58:13.738Z,72.58
2024-01-24T05:59:16.317Z,72.73
2024-01-24T06:00:18.978Z,72.70
2024-01-24T06:01:22.770Z,72.48
2024-01-24T06:02:25.335Z,72.51
2024-01-24T06:03:27.916Z,72.47
2024-01-24T06:04:31.217Z,72.59
2024-01-24T06:05:34.227Z,72.69
2024-01-24T06:06:37.121Z,72.64
2024-01-24T06:07:40.300Z,72.83
2024-01-24T06:08:44.851Z,73.11
2024-01-24T06:09:47.507Z,73.48
2024-01-24T06:10:50.238Z,73.69
2024-01-24T06:11:52.774Z,73.26
2024-01-24T06:12:55.432Z,73.26
2024-01-24T06:13:57.974Z,72.53
2024-01-24T06:15:00.718Z,71.84
2024-01-24T06:16:03.755Z,71.15
2024-01-24T06:17:06.446Z,71.02
2024-01-24T06:18:09.191Z,70.92
2024-01-24T06:19:11.892Z,70.58
2024-01-24T06:20:15.087Z,70.89
2024-01-24T06:21:17.798Z,71.14
2024-01-24T06:22:20.407Z,71.58
2024-01-24T06:23:23.018Z,71.57
2024-01-24T06:24:25.695Z,71.12
2024-01-24T06:25:28.341Z,71.29
2024-01-24T06:26:31.794Z,71.37
2024-01-24T06:27:36.310Z,71.31
2024-01-24T06:28:39.148Z,71.27
2024-01-24T06:30:16.506Z,70.82
2024-01-24T06:31:04.530Z,70.77
2024-01-24T06:32:08.044Z,70.65
2024-01-24T06:33:10.711Z,70.55
2024-01-24T06:34:13.760Z,70.40
2024-01-24T06:35:16.435Z,70.12
2024-01-24T06:36:19.220Z,69.86
2024-01-24T06:37:22.338Z,70.16
2024-01-24T06:38:25.069Z,69.84
2024-01-24T06:39:28.268Z,69.74
2024-01-24T06:40:31.170Z,69.53
2024-01-24T06:41:34.592Z,69.23
2024-01-24T06:42:39.005Z,68.84
2024-01-24T06:43:43.622Z,68.61
2024-01-24T06:44:46.487Z,68.18
2024-01-24T06:45:49.176Z,67.48
2024-01-24T06:46:52.415Z,66.42
2024-01-24T06:47:55.022Z,66.12
2024-01-24T06:48:57.684Z,65.36
2024-01-24T06:50:00.366Z,65.26
2024-01-24T06:51:02.976Z,64.99
2024-01-24T06:52:05.920Z,63.84
2024-01-24T06:53:11.574Z,62.70
2024-01-24T06:54:14.440Z,62.02
2024-01-24T06:55:18.755Z,62.18
2024-01-24T06:56:22.661Z,61.79
2024-01-24T06:57:25.439Z,61.58
2024-01-24T06:58:28.016Z,61.13
2024-01-24T06:59:32.760Z,59.96
2024-01-24T07:00:35.502Z,59.52
2024-01-24T07:01:38.210Z,59.28
2024-01-24T07:02:40.823Z,58.48
2024-01-24T07:03:43.510Z,57.61
2024-01-24T07:04:46.333Z,57.36
2024-01-24T07:05:49.111Z,56.16
2024-01-24T07:06:51.979Z,56.36
2024-01-24T07:07:54.603Z,55.55
2024-01-24T07:08:57.620Z,54.80
2024-01-24T07:10:00.409Z,54.62
2024-01-24T07:11:03.526Z,54.01
2024-01-24T07:12:06.811Z,53.88
2024-01-24T07:13:09.749Z,52.83
2024-01-24T07:14:16.031Z,52.30
2024-01-24T07:15:19.157Z,52.04
2024-01-24T07:16:21.783Z,51.27
2024-01-24T07:17:24.859Z,50.79
2024-01-24T07:18:28.272Z,51.21
2024-01-24T07:19:31.000Z,50.71
2024-01-24T07:20:33.570Z,50.27
2024-01-24T07:21:36.816Z,50.63
2024-01-24T07:22:40.173Z,49.93
2024-01-24T07:23:42.782Z,49.70
2024-01-24T07:24:46.045Z,49.41
2024-01-24T07:25:48.905Z,49.54
2024-01-24T07:26:51.542Z,49.76
2024-01-24T07:27:54.721Z,49.60
2024-01-24T07:28:57.413Z,49.00
2024-01-24T07:30:00.399Z,48.08
2024-01-24T07:31:03.804Z,47.22
2024-01-24T07:32:07.296Z,46.50
2024-01-24T07:33:09.906Z,46.22
2024-01-24T07:34:13.123Z,46.21
2024-01-24T07:35:16.770Z,46.36
2024-01-24T07:36:22.500Z,46.88
2024-01-24T07:37:25.157Z,47.13
2024-01-24T07:38:27.806Z,46.83
2024-01-24T07:39:30.855Z,46.76
2024-01-24T07:40:33.537Z,46.68
2024-01-24T07:41:36.429Z,46.38
2024-01-24T07:42:39.193Z,45.36
2024-01-24T07:43:42.806Z,44.58
2024-01-24T07:44:45.331Z,44.61
2024-01-24T07:45:48.006Z,43.76
2024-01-24T07:46:50.991Z,43.80
2024-01-24T07:47:54.880Z,44.01
2024-01-24T07:48:58.001Z,44.38
2024-01-24T07:50:01.220Z,44.16
2024-01-24T07:51:05.807Z,43.47
2024-01-24T07:52:08.717Z,44.55
2024-01-24T07:53:12.234Z,44.83
2024-01-24T07:54:14.963Z,45.44
2024-01-24T07:55:24.813Z,43.52
2024-01-24T07:56:31.719Z,44.06
2024-01-24T07:57:34.570Z,44.37
2024-01-24T07:58:40.197Z,43.42
2024-01-24T07:59:42.927Z,42.68
2024-01-24T08:00:46.790Z,41.79
2024-01-24T08:01:50.080Z,43.06
2024-01-24T08:02:53.429Z,42.61
2024-01-24T08:03:56.688Z,42.00
2024-01-24T08:05:00.426Z,40.22
2024-01-24T08:06:03.730Z,37.51
2024-01-24T08:07:07.345Z,36.53
2024-01-24T08:08:10.025Z,34.55
2024-01-24T08:09:13.704Z,34.98
2024-01-24T08:10:16.956Z,36.37
2024-01-24T08:11:22.626Z,36.39
2024-01-24T08:12:25.442Z,35.05
2024-01-24T08:13:28.068Z,35.53
2024-01-24T08:14:31.482Z,35.60
2024-01-24T08:15:34.711Z,36.72
2024-01-24T08:16:37.562Z,35.55
2024-01-24T08:17:40.257Z,33.26
2024-01-24T08:18:43.052Z,34.54
2024-01-24T08:19:46.358Z,35.67
2024-01-24T08:20:49.169Z,37.62
2024-01-24T08:21:51.849Z,37.18
2024-01-24T08:22:54.511Z,36.76
2024-01-24T08:23:57.160Z,37.28
2024-01-24T08:24:59.871Z,35.39
2024-01-24T08:26:02.699Z,37.13
2024-01-24T08:27:05.646Z,35.57
2024-01-24T08:28:09.429Z,33.80
2024-01-24T08:29:19.035Z,32.66
2024-01-24T08:30:28.375Z,29.02
2024-01-24T08:31:31.016Z,29.92
2024-01-24T08:32:33.859Z,29.96
2024-01-24T08:33:36.684Z,30.26
2024-01-24T08:34:40.308Z,31.27
2024-01-24T08:35:42.965Z,30.87
2024-01-24T08:36:45.824Z,31.01
2024-01-24T08:37:48.588Z,31.41
2024-01-24T08:38:51.942Z,30.99
2024-01-24T08:39:54.736Z,31.26
2024-01-24T08:40:57.645Z,31.28
2024-01-24T08:42:00.196Z,32.28
2024-01-24T08:43:02.975Z,31.61
2024-01-24T08:44:06.066Z,32.15
2024-01-24T08:45:10.361Z,31.47
2024-01-24T08:46:13.062Z,31.64
2024-01-24T08:47:15.730Z,31.83
2024-01-24T08:48:22.901Z,30.41
2024-01-24T08:49:26.211Z,30.54
2024-01-24T08:50:29.019Z,29.28
2024-01-24T08:51:32.993Z,29.87
2024-01-24T08:52:36.606Z,30.01
2024-01-24T08:53:39.393Z,29.48
2024-01-24T08:54:44.754Z,29.77
2024-01-24T08:55:48.579Z,29.57
2024-01-24T08:56:51.532Z,30.26
2024-01-24T08:57:55.514Z,33.86
2024-01-24T08:58:58.352Z,36.95
2024-01-24T09:00:01.192Z,36.50
2024-01-24T09:01:04.598Z,34.23
2024-01-24T09:02:08.640Z,32.86
2024-01-24T09:03:12.355Z,33.12
2024-01-24T09:04:15.661Z,33.90
2024-01-24T09:05:22.136Z,35.97
2024-01-24T09:06:26.407Z,36.30
2024-01-24T09:07:29.103Z,35.80
2024-01-24T09:08:31.661Z,35.85
2024-01-24T09:09:36.611Z,33.73
2024-01-24T09:10:40.666Z,34.11
2024-01-24T09:11:50.413Z,34.24
2024-01-24T09:12:59.375Z,35.64
2024-01-24T09:14:01.968Z,37.36
2024-01-24T09:15:05.736Z,36.76
2024-01-24T09:16:09.259Z,37.14
2024-01-24T09:17:13.529Z,38.27
2024-01-24T09:18:19.720Z,37.79
2024-01-24T09:19:23.279Z,36.63
2024-01-24T09:20:26.209Z,35.85
2024-01-24T09:21:28.893Z,36.74
2024-01-24T09:22:31.693Z,36.96
2024-01-24T09:23:34.592Z,36.64
2024-01-24T09:24:38.414Z,36.76
2024-01-24T09:25:41.031Z,36.47
2024-01-24T09:26:43.819Z,36.79
2024-01-24T09:27:47.074Z,36.65
2024-01-24T09:28:49.638Z,36.91
2024-01-24T09:29:52.749Z,37.79
2024-01-24T09:30:55.502Z,37.76
2024-01-24T09:31:59.091Z,38.45
2024-01-24T09:33:01.926Z,37.17
2024-01-24T09:34:04.751Z,38.61
2024-01-24T09:35:08.202Z,37.76
2024-01-24T09:36:11.208Z,39.67
2024-01-24T09:37:14.006Z,39.16
2024-01-24T09:38:17.027Z,38.78
2024-01-24T09:39:19.886Z,41.36
2024-01-24T09:40:22.875Z,42.09
2024-01-24T09:41:26.610Z,42.17
2024-01-24T09:42:33.367Z,42.53
2024-01-24T09:43:40.363Z,42.49
2024-01-24T09:44:48.069Z,42.81
2024-01-24T09:45:51.894Z,42.84
2024-01-24T09:46:56.849Z,42.87
2024-01-24T09:48:00.004Z,42.22
2024-01-24T09:49:04.531Z,41.24
2024-01-24T09:50:09.973Z,41.33
2024-01-24T09:51:14.774Z,40.12
2024-01-24T09:52:25.282Z,41.07
2024-01-24T09:53:32.037Z,43.73
2024-01-24T09:54:36.349Z,43.03
2024-01-24T09:55:39.118Z,43.40
2024-01-24T09:56:42.555Z,43.29
2024-01-24T09:57:47.002Z,44.26
2024-01-24T09:58:49.637Z,44.20
2024-01-24T09:59:52.705Z,44.99
2024-01-24T10:00:58.788Z,44.61
2024-01-24T10:02:01.545Z,43.71
2024-01-24T10:03:05.292Z,43.90
2024-01-24T10:04:11.681Z,43.19
2024-01-24T10:05:18.634Z,42.99
2024-01-24T10:06:22.310Z,43.88
2024-01-24T10:07:25.030Z,45.95
2024-01-24T10:08:29.002Z,45.47
2024-01-24T10:09:31.748Z,46.61
2024-01-24T10:10:34.518Z,46.30
2024-01-24T10:11:37.115Z,44.85
2024-01-24T10:12:43.047Z,43.76
2024-01-24T10:13:45.758Z,48.12
2024-01-24T10:14:48.372Z,47.41
2024-01-24T10:15:51.144Z,46.62
2024-01-24T10:16:53.957Z,45.62
2024-01-24T10:17:57.334Z,45.49
2024-01-24T10:19:00.292Z,44.56
2024-01-24T10:20:07.471Z,44.22
2024-01-24T10:21:10.326Z,44.61
2024-01-24T10:22:13.092Z,44.53
2024-01-24T10:23:17.105Z,44.37
2024-01-24T10:24:20.829Z,43.64
2024-01-24T10:25:23.853Z,43.56
2024-01-24T10:26:28.290Z,45.61
2024-01-24T10:27:31.794Z,44.38
2024-01-24T10:28:36.306Z,43.22
2024-01-24T10:29:45.111Z,41.49
2024-01-24T10:30:50.285Z,42.48
2024-01-24T10:31:57.623Z,42.49
2024-01-24T10:33:00.369Z,41.65
2024-01-24T10:34:05.613Z,41.42
2024-01-24T10:35:09.837Z,41.33
2024-01-24T10:36:21.394Z,41.10
2024-01-24T10:37:29.464Z,41.00
2024-01-24T10:38:38.564Z,40.05
2024-01-24T10:39:41.599Z,39.53
2024-01-24T10:40:44.633Z,39.20
2024-01-24T10:41:52.654Z,42.05
2024-01-24T10:43:03.998Z,41.48
2024-01-24T10:44:11.097Z,41.89
2024-01-24T10:45:16.947Z,42.21
2024-01-24T10:46:20.240Z,40.81
2024-01-24T10:47:23.414Z,41.36
2024-01-24T10:48:27.211Z,42.53
2024-01-24T10:49:32.435Z,41.68
2024-01-24T10:50:37.706Z,41.68
2024-01-24T10:51:41.260Z,42.47
2024-01-24T10:52:44.676Z,41.20
2024-01-24T10:53:50.987Z,41.55
2024-01-24T10:54:56.927Z,40.75
2024-01-24T10:56:03.661Z,41.49
2024-01-24T10:57:08.437Z,41.33
2024-01-24T10:58:14.518Z,41.45
2024-01-24T10:59:20.685Z,41.77
2024-01-24T11:00:24.529Z,41.99
2024-01-24T11:01:27.354Z,42.15
2024-01-24T11:02:30.092Z,42.32
2024-01-24T11:03:34.002Z,42.03
2024-01-24T11:04:39.033Z,42.46
2024-01-24T11:05:57.081Z,41.30
2024-01-24T11:07:16.797Z,40.88
2024-01-24T11:08:40.362Z,42.44
2024-01-24T11:10:10.828Z,43.13
2024-01-24T11:11:18.634Z,43.24
2024-01-24T11:12:22.564Z,43.26
2024-01-24T11:13:25.672Z,43.59
2024-01-24T11:14:35.987Z,45.76
2024-01-24T11:15:39.851Z,44.65
2024-01-24T11:16:42.772Z,43.87
2024-01-24T11:17:48.009Z,44.13
2024-01-24T11:18:53.629Z,44.30
2024-01-24T11:19:56.824Z,44.32
2024-01-24T11:21:01.247Z,41.85
2024-01-24T11:22:17.122Z,43.86
2024-01-24T11:23:42.417Z,45.33
2024-01-24T11:24:45.402Z,45.04
2024-01-24T11:25:48.148Z,45.88
2024-01-24T11:26:50.892Z,45.24
2024-01-24T11:27:58.732Z,44.67
2024-01-24T11:29:15.405Z,43.57
2024-01-24T11:30:27.889Z,41.87
2024-01-24T11:31:42.153Z,43.16
2024-01-24T11:32:48.497Z,41.32
2024-01-24T11:34:11.418Z,43.27
2024-01-24T11:35:37.413Z,41.94
2024-01-24T11:36:53.972Z,41.03
2024-01-24T11:38:08.376Z,41.33
2024-01-24T11:39:33.197Z,41.22
2024-01-24T11:40:39.822Z,42.38
2024-01-24T11:41:42.616Z,44.13
2024-01-24T11:42:55.820Z,41.58
2024-01-24T11:43:58.555Z,42.23
2024-01-24T11:45:18.415Z,45.03
2024-01-24T11:46:24.339Z,44.70
2024-01-24T11:47:28.178Z,44.09
2024-01-24T11:48:33.479Z,42.90
2024-01-24T11:49:36.768Z,43.42
2024-01-24T11:50:39.569Z,43.09
2024-01-24T11:51:42.376Z,43.89
2024-01-24T11:52:46.753Z,44.86
2024-01-24T11:53:49.433Z,44.22
2024-01-24T11:54:56.232Z,44.98
2024-01-24T11:56:03.939Z,45.51
2024-01-24T11:57:06.532Z,45.09
2024-01-24T11:58:09.381Z,43.88
2024-01-24T11:59:12.222Z,42.81
2024-01-24T12:00:17.096Z,41.90
2024-01-24T12:01:19.971Z,41.79
2024-01-24T12:02:24.548Z,41.41
2024-01-24T12:03:27.605Z,41.77
2024-01-24T12:04:30.387Z,41.39
2024-01-24T12:05:33.942Z,41.74
2024-01-24T12:06:37.068Z,41.84
2024-01-24T12:07:39.937Z,42.03
2024-01-24T12:08:49.791Z,42.52
2024-01-24T12:09:54.494Z,43.46
2024-01-24T12:10:57.862Z,42.64
2024-01-24T12:12:00.501Z,41.20
2024-01-24T12:13:04.860Z,41.65
2024-01-24T12:14:07.757Z,42.32
2024-01-24T12:15:11.452Z,43.09
2024-01-24T12:16:15.514Z,43.49
2024-01-24T12:17:18.320Z,43.03
2024-01-24T12:18:21.493Z,42.92
2024-01-24T12:19:24.824Z,43.02
2024-01-24T12:20:28.207Z,42.59
2024-01-24T12:21:31.843Z,42.39
2024-01-24T12:22:34.943Z,42.13
2024-01-24T12:23:38.022Z,43.47
2024-01-24T12:24:43.984Z,43.06
2024-01-24T12:25:47.644Z,42.63
2024-01-24T12:26:52.324Z,42.32
2024-01-24T12:27:58.814Z,42.76
2024-01-24T12:29:01.817Z,41.49
2024-01-24T12:30:05.632Z,41.70
2024-01-24T12:31:11.005Z,40.93
2024-01-24T12:32:15.235Z,42.65
2024-01-24T12:33:18.934Z,41.94
2024-01-24T12:34:22.942Z,41.05
2024-01-24T12:35:26.194Z,41.13
2024-01-24T12:36:28.939Z,41.04
2024-01-24T12:37:32.106Z,41.30
2024-01-24T12:38:38.290Z,42.28
2024-01-24T12:39:44.542Z,42.05
2024-01-24T12:40:53.998Z,42.15
2024-01-24T12:41:57.548Z,41.37
2024-01-24T12:43:01.048Z,42.68
2024-01-24T12:44:06.181Z,43.17
2024-01-24T12:45:15.797Z,43.20
2024-01-24T12:46:21.425Z,43.88
2024-01-24T12:47:24.275Z,43.54
2024-01-24T12:48:27.066Z,43.06
2024-01-24T12:49:30.792Z,43.34
2024-01-24T12:50:34.124Z,42.96
2024-01-24T12:51:41.293Z,42.34
2024-01-24T12:52:48.264Z,44.54
2024-01-24T12:53:51.402Z,43.22
2024-01-24T12:54:54.082Z,44.39
2024-01-24T12:55:57.074Z,43.22
2024-01-24T12:56:59.730Z,43.00
2024-01-24T12:58:02.679Z,43.13
2024-01-24T12:59:05.512Z,42.87
2024-01-24T13:00:11.382Z,42.43
2024-01-24T13:01:14.480Z,41.92
2024-01-24T13:02:18.521Z,43.22
2024-01-24T13:03:22.581Z,42.45
2024-01-24T13:04:26.936Z,42.90
2024-01-24T13:05:35.675Z,44.32
2024-01-24T13:06:46.015Z,44.41
2024-01-24T13:07:48.842Z,42.85
2024-01-24T13:08:52.032Z,42.31
2024-01-24T13:09:56.888Z,41.71
2024-01-24T13:11:01.535Z,41.15
2024-01-24T13:12:04.457Z,41.42
2024-01-24T13:13:09.305Z,42.10
2024-01-24T13:14:13.766Z,40.98
2024-01-24T13:15:16.648Z,40.89
2024-01-24T13:16:19.260Z,41.62
2024-01-24T13:17:22.181Z,42.37
2024-01-24T13:18:25.207Z,42.93
2024-01-24T13:19:27.883Z,43.80
2024-01-24T13:20:30.531Z,44.31
2024-01-24T13:21:33.930Z,44.47
2024-01-24T13:22:37.064Z,44.22
2024-01-24T13:23:41.113Z,43.34
2024-01-24T13:24:43.714Z,42.90
2024-01-24T13:25:47.118Z,43.62
2024-01-24T13:26:50.008Z,42.93
2024-01-24T13:27:52.794Z,43.13
2024-01-24T13:28:55.806Z,43.87
2024-01-24T13:29:58.562Z,43.88
2024-01-24T13:31:01.191Z,43.51
2024-01-24T13:32:07.531Z,43.74
2024-01-24T13:33:11.131Z,44.29
2024-01-24T13:34:14.215Z,44.44
2024-01-24T13:35:17.296Z,45.70
2024-01-24T13:36:23.285Z,44.95
2024-01-24T13:37:26.092Z,44.91
2024-01-24T13:38:33.173Z,45.07
2024-01-24T13:39:37.289Z,46.06
2024-01-24T13:40:40.284Z,46.91
2024-01-24T13:41:44.493Z,46.51
2024-01-24T13:42:47.680Z,46.89